createdAt,value
2019-03-17T00:00:54.359Z,99809.16
2019-03-17T00:03:24.700Z,99812.55
2019-03-17T00:05:55.057Z,99795.64
2019-03-17T00:08:25.427Z,99799.52
2019-03-17T00:10:55.784Z,99791.70
2019-03-17T00:13:26.146Z,99784.62
2019-03-17T00:15:56.509Z,99773.09
2019-03-17T00:18:26.869Z,99776.17
2019-03-17T00:20:57.228Z,99766.50
2019-03-17T00:23:27.581Z,99768.39
2019-03-17T00:25:57.920Z,99768.55
2019-03-17T00:28:28.283Z,99766.41
2019-03-17T00:30:58.652Z,99761.66
2019-03-17T00:33:29.050Z,99763.03
2019-03-17T00:35:59.400Z,99769.30
2019-03-17T00:38:29.752Z,99766.98
2019-03-17T00:41:00.091Z,99765.06
2019-03-17T00:43:30.452Z,99758.80
2019-03-17T00:46:00.718Z,99755.27
2019-03-17T00:48:31.092Z,99765.42
2019-03-17T00:51:01.437Z,99754.24
2019-03-17T00:53:31.791Z,99753.40
2019-03-17T00:56:02.239Z,99750.37
2019-03-17T00:58:34.697Z,99745.46
2019-03-17T01:01:05.063Z,99740.05
2019-03-17T01:03:35.340Z,99747.88
2019-03-17T01:06:05.679Z,99744.34
2019-03-17T01:08:36.024Z,99737.08
2019-03-17T01:11:06.397Z,99731.98
2019-03-17T01:13:36.742Z,99734.36
2019-03-17T01:16:07.074Z,99743.50
2019-03-17T01:18:38.950Z,99739.11
2019-03-17T01:21:09.303Z,99742.48
2019-03-17T01:23:39.664Z,99739.42
2019-03-17T01:26:09.980Z,99735.38
2019-03-17T01:28:40.301Z,99730.13
2019-03-17T01:31:10.566Z,99730.66
2019-03-17T01:33:40.909Z,99726.58
2019-03-17T01:36:11.248Z,99718.45
2019-03-17T01:38:41.601Z,99716.74
2019-03-17T01:41:11.964Z,99713.53
2019-03-17T01:43:42.312Z,99707.72
2019-03-17T01:46:12.854Z,99698.98
2019-03-17T01:48:43.444Z,99697.91
2019-03-17T01:51:13.830Z,99695.95
2019-03-17T01:53:44.122Z,99692.73
2019-03-17T01:56:14.514Z,99694.95
2019-03-17T01:58:44.867Z,99692.73
2019-03-17T02:01:15.260Z,99696.48
2019-03-17T02:03:48.184Z,99691.22
2019-03-17T02:06:18.548Z,99696.97
2019-03-17T02:08:48.909Z,99699.84
2019-03-17T02:11:19.242Z,99698.17
2019-03-17T02:13:49.593Z,99698.48
2019-03-17T02:16:20.047Z,99703.56
2019-03-17T02:18:50.383Z,99706.60
2019-03-17T02:21:20.735Z,99709.64
2019-03-17T02:23:51.386Z,99701.03
2019-03-17T02:26:21.711Z,99693.77
2019-03-17T02:28:52.044Z,99689.34
2019-03-17T02:31:22.315Z,99681.22
2019-03-17T02:33:52.650Z,99686.63
2019-03-17T02:36:23.013Z,99686.13
2019-03-17T02:38:54.188Z,99681.84
2019-03-17T02:41:24.570Z,99668.75
2019-03-17T02:43:55.978Z,99678.22
2019-03-17T02:46:26.326Z,99671.09
2019-03-17T02:48:56.604Z,99666.03
2019-03-17T02:51:26.954Z,99659.59
2019-03-17T02:53:57.295Z,99668.30
2019-03-17T02:56:27.578Z,99659.34
2019-03-17T02:58:57.868Z,99653.73
2019-03-17T03:01:28.284Z,99657.92
2019-03-17T03:03:58.646Z,99669.10
2019-03-17T03:06:29.065Z,99662.00
2019-03-17T03:08:59.418Z,99659.23
2019-03-17T03:11:29.769Z,99654.47
2019-03-17T03:14:00.122Z,99656.82
2019-03-17T03:16:30.479Z,99650.78
2019-03-17T03:19:00.833Z,99658.84
2019-03-17T03:21:31.175Z,99666.48
2019-03-17T03:24:01.513Z,99657.86
2019-03-17T03:26:31.846Z,99650.84
2019-03-17T03:29:02.180Z,99647.80
2019-03-17T03:31:32.515Z,99646.59
2019-03-17T03:34:02.790Z,99652.17
2019-03-17T03:36:33.157Z,99647.95
2019-03-17T03:39:04.533Z,99647.59
2019-03-17T03:41:35.226Z,99644.23
2019-03-17T03:44:05.578Z,99640.73
2019-03-17T03:46:35.946Z,99640.62
2019-03-17T03:49:06.304Z,99636.30
2019-03-17T03:51:36.649Z,99639.25
2019-03-17T03:54:07.998Z,99630.72
2019-03-17T03:56:38.379Z,99636.22
2019-03-17T03:59:08.729Z,99629.39
2019-03-17T04:01:39.103Z,99629.39
2019-03-17T04:04:09.866Z,99631.43
2019-03-17T04:06:40.153Z,99629.02
2019-03-17T04:09:10.544Z,99620.98
2019-03-17T04:11:40.873Z,99621.27
2019-03-17T04:14:11.139Z,99619.83
2019-03-17T04:16:41.469Z,99615.61
2019-03-17T04:19:11.750Z,99614.22
2019-03-17T04:21:42.163Z,99619.39
2019-03-17T04:24:12.504Z,99615.01
2019-03-17T04:26:42.864Z,99615.28
2019-03-17T04:29:13.211Z,99613.06
2019-03-17T04:31:43.565Z,99609.58
2019-03-17T04:34:13.922Z,99607.22
2019-03-17T04:36:44.250Z,99606.77
2019-03-17T04:39:14.727Z,99607.01
2019-03-17T04:41:45.087Z,99604.09
2019-03-17T04:44:20.916Z,99600.28
2019-03-17T04:46:47.478Z,99598.64
2019-03-17T04:49:17.743Z,99595.18
2019-03-17T04:51:48.117Z,99597.02
2019-03-17T04:54:18.467Z,99598.69
2019-03-17T04:56:48.752Z,99593.62
2019-03-17T04:59:19.043Z,99589.27
2019-03-17T05:01:49.419Z,99588.08
2019-03-17T05:04:19.752Z,99583.03
2019-03-17T05:06:52.983Z,99584.34
2019-03-17T05:09:22.163Z,99579.82
2019-03-17T05:11:52.679Z,99572.44
2019-03-17T05:14:23.041Z,99564.20
2019-03-17T05:16:53.371Z,99566.46
2019-03-17T05:19:23.717Z,99562.20
2019-03-17T05:21:54.203Z,99557.66
2019-03-17T05:24:24.583Z,99555.25
2019-03-17T05:26:55.346Z,99558.48
2019-03-17T05:29:25.667Z,99558.81
2019-03-17T05:31:56.345Z,99550.17
2019-03-17T05:34:26.816Z,99550.52
2019-03-17T05:37:05.923Z,99548.50
2019-03-17T05:39:30.169Z,99549.88
2019-03-17T05:42:02.454Z,99552.36
2019-03-17T05:44:33.235Z,99545.61
2019-03-17T05:47:03.959Z,99544.59
2019-03-17T05:49:35.879Z,99543.92
2019-03-17T05:52:07.332Z,99536.99
2019-03-17T05:54:38.443Z,99538.02
2019-03-17T05:57:08.946Z,99539.27
2019-03-17T05:59:39.317Z,99535.16
2019-03-17T06:02:09.850Z,99530.58
2019-03-17T06:04:40.286Z,99535.72
2019-03-17T06:07:18.609Z,99542.77
2019-03-17T06:09:42.898Z,99532.09
2019-03-17T06:12:13.255Z,99533.58
2019-03-17T06:14:43.664Z,99527.62
2019-03-17T06:17:14.244Z,99529.52
2019-03-17T06:19:44.832Z,99535.91
2019-03-17T06:22:15.558Z,99539.78
2019-03-17T06:24:45.919Z,99530.91
2019-03-17T06:27:16.277Z,99537.39
2019-03-17T06:29:46.645Z,99527.94
2019-03-17T06:32:17.012Z,99526.91
2019-03-17T06:34:48.534Z,99526.80
2019-03-17T06:37:30.208Z,99521.89
2019-03-17T06:39:50.910Z,99518.44
2019-03-17T06:42:21.210Z,99522.44
2019-03-17T06:44:51.554Z,99509.22
2019-03-17T06:47:21.906Z,99508.24
2019-03-17T06:49:52.274Z,99508.84
2019-03-17T06:52:22.702Z,99507.30
2019-03-17T06:54:53.073Z,99496.20
2019-03-17T06:57:23.413Z,99501.16
2019-03-17T06:59:53.768Z,99500.13
2019-03-17T07:02:24.129Z,99503.72
2019-03-17T07:04:54.488Z,99501.61
2019-03-17T07:07:24.984Z,99504.56
2019-03-17T07:09:55.268Z,99504.19
2019-03-17T07:12:25.620Z,99499.04
2019-03-17T07:14:55.959Z,99503.86
2019-03-17T07:17:26.144Z,99495.33
2019-03-17T07:19:58.098Z,99484.84
2019-03-17T07:22:28.601Z,99490.00
2019-03-17T07:24:59.014Z,99490.83
2019-03-17T07:27:29.535Z,99488.52
2019-03-17T07:29:59.946Z,99490.34
2019-03-17T07:32:30.231Z,99491.29
2019-03-17T07:35:00.593Z,99494.14
2019-03-17T07:37:30.929Z,99496.39
2019-03-17T07:40:01.350Z,99492.45
2019-03-17T07:42:32.698Z,99490.48
2019-03-17T07:45:03.206Z,99487.70
2019-03-17T07:47:35.701Z,99480.04
2019-03-17T07:50:10.928Z,99485.68
2019-03-17T07:52:41.290Z,99488.55
2019-03-17T07:55:12.637Z,99491.92
2019-03-17T07:57:42.970Z,99482.58
2019-03-17T08:00:13.958Z,99475.91
2019-03-17T08:02:44.307Z,99478.59
2019-03-17T08:05:14.713Z,99469.75
2019-03-17T08:07:45.064Z,99471.59
2019-03-17T08:10:16.361Z,99471.17
2019-03-17T08:12:48.100Z,99464.04
2019-03-17T08:15:18.452Z,99460.36
2019-03-17T08:17:48.795Z,99461.80
2019-03-17T08:20:19.094Z,99460.08
2019-03-17T08:22:49.449Z,99460.08
2019-03-17T08:25:19.867Z,99450.09
2019-03-17T08:27:50.241Z,99443.23
2019-03-17T08:30:20.623Z,99444.61
2019-03-17T08:32:51.021Z,99437.79
2019-03-17T08:35:21.418Z,99453.02
2019-03-17T08:37:51.791Z,99449.32
2019-03-17T08:40:22.160Z,99448.97
2019-03-17T08:42:52.573Z,99453.44
2019-03-17T08:45:23.140Z,99462.12
2019-03-17T08:47:58.247Z,99453.98
2019-03-17T08:50:25.652Z,99459.05
2019-03-17T08:52:56.105Z,99450.58
2019-03-17T08:55:26.488Z,99458.70
2019-03-17T08:57:56.899Z,99457.48
2019-03-17T09:00:27.263Z,99451.97
2019-03-17T09:02:57.725Z,99448.16
2019-03-17T09:05:28.139Z,99456.08
2019-03-17T09:07:58.517Z,99449.69
2019-03-17T09:10:28.862Z,99453.86
2019-03-17T09:12:59.248Z,99456.75
2019-03-17T09:15:29.622Z,99455.64
2019-03-17T09:17:59.974Z,99455.95
2019-03-17T09:20:30.344Z,99444.06
2019-03-17T09:23:00.753Z,99454.16
2019-03-17T09:25:31.128Z,99452.16
2019-03-17T09:28:01.482Z,99443.87
2019-03-17T09:30:31.865Z,99435.92
2019-03-17T09:33:02.281Z,99430.59
2019-03-17T09:35:32.650Z,99423.38
2019-03-17T09:38:03.016Z,99426.43
2019-03-17T09:40:33.366Z,99422.02
2019-03-17T09:43:03.709Z,99429.14
2019-03-17T09:45:34.062Z,99421.49
2019-03-17T09:48:04.358Z,99422.65
2019-03-17T09:50:34.725Z,99423.95
2019-03-17T09:53:05.085Z,99416.47
2019-03-17T09:55:35.431Z,99407.94
2019-03-17T09:58:05.796Z,99406.73
2019-03-17T10:00:36.151Z,99410.59
2019-03-17T10:03:06.484Z,99411.36
2019-03-17T10:05:36.946Z,99405.92
2019-03-17T10:08:07.286Z,99402.13
2019-03-17T10:10:37.717Z,99406.48
2019-03-17T10:13:08.006Z,99403.39
2019-03-17T10:15:39.442Z,99396.52
2019-03-17T10:18:09.781Z,99393.59
2019-03-17T10:20:40.153Z,99393.17
2019-03-17T10:23:10.526Z,99393.05
2019-03-17T10:25:41.061Z,99383.53
2019-03-17T10:28:11.594Z,99371.68
2019-03-17T10:30:41.966Z,99386.69
2019-03-17T10:33:13.331Z,99386.08
2019-03-17T10:35:43.688Z,99391.56
2019-03-17T10:38:15.417Z,99387.65
2019-03-17T10:40:45.918Z,99375.63
2019-03-17T10:43:16.276Z,99386.59
2019-03-17T10:45:47.117Z,99386.59
2019-03-17T10:48:17.441Z,99388.63
2019-03-17T10:50:49.874Z,99385.27
2019-03-17T10:53:19.871Z,99389.50
2019-03-17T10:55:50.218Z,99377.73
2019-03-17T10:58:20.569Z,99379.52
2019-03-17T11:00:50.967Z,99388.88
2019-03-17T11:03:21.371Z,99386.50
2019-03-17T11:05:54.405Z,99373.78
2019-03-17T11:08:23.735Z,99372.77
2019-03-17T11:10:54.095Z,99368.66
2019-03-17T11:13:24.534Z,99370.77
2019-03-17T11:15:54.881Z,99359.27
2019-03-17T11:18:25.256Z,99359.63
2019-03-17T11:20:55.605Z,99356.58
2019-03-17T11:23:25.877Z,99353.32
2019-03-17T11:25:56.232Z,99356.16
2019-03-17T11:28:27.683Z,99354.38
2019-03-17T11:30:58.799Z,99354.05
2019-03-17T11:33:29.144Z,99351.06
2019-03-17T11:36:00.490Z,99340.35
2019-03-17T11:38:30.851Z,99347.58
2019-03-17T11:41:01.129Z,99344.57
2019-03-17T11:43:31.517Z,99345.05
2019-03-17T11:46:01.878Z,99346.02
2019-03-17T11:48:32.249Z,99340.68
2019-03-17T11:51:02.607Z,99342.67
2019-03-17T11:53:32.947Z,99343.60
2019-03-17T11:56:03.239Z,99341.02
2019-03-17T11:58:33.593Z,99342.83
2019-03-17T12:01:03.954Z,99355.38
2019-03-17T12:03:34.304Z,99348.94
2019-03-17T12:06:04.704Z,99345.30
2019-03-17T12:08:35.039Z,99338.59
2019-03-17T12:11:05.396Z,99328.27
2019-03-17T12:13:35.723Z,99330.39
2019-03-17T12:16:07.750Z,99323.70
2019-03-17T12:18:38.105Z,99317.06
2019-03-17T12:21:08.664Z,99316.48
2019-03-17T12:23:39.044Z,99310.37
2019-03-17T12:26:09.403Z,99313.47
2019-03-17T12:28:39.783Z,99317.02
2019-03-17T12:31:10.309Z,99321.89
2019-03-17T12:33:40.680Z,99328.05
2019-03-17T12:36:11.068Z,99323.98
2019-03-17T12:38:41.944Z,99327.95
2019-03-17T12:41:12.739Z,99319.67
2019-03-17T12:43:43.071Z,99325.00
2019-03-17T12:46:13.423Z,99323.51
2019-03-17T12:48:43.717Z,99314.09
2019-03-17T12:51:14.885Z,99321.77
2019-03-17T12:53:45.207Z,99318.77
2019-03-17T12:56:15.579Z,99314.87
2019-03-17T12:58:45.964Z,99300.83
2019-03-17T13:01:16.341Z,99309.98
2019-03-17T13:03:48.862Z,99307.72
2019-03-17T13:06:19.384Z,99304.51
2019-03-17T13:08:50.294Z,99301.47
2019-03-17T13:11:20.640Z,99302.27
2019-03-17T13:13:51.032Z,99305.48
2019-03-17T13:16:21.369Z,99305.50
2019-03-17T13:18:51.740Z,99307.48
2019-03-17T13:21:24.454Z,99300.99
2019-03-17T13:23:54.864Z,99306.68
2019-03-17T13:26:25.227Z,99301.23
2019-03-17T13:28:55.573Z,99294.38
2019-03-17T13:31:25.927Z,99297.55
2019-03-17T13:33:56.282Z,99296.34
2019-03-17T13:36:26.656Z,99294.08
2019-03-17T13:38:57.043Z,99297.13
2019-03-17T13:41:27.370Z,99292.55
2019-03-17T13:43:57.747Z,99295.47
2019-03-17T13:46:28.110Z,99299.00
2019-03-17T13:48:58.635Z,99304.83
2019-03-17T13:51:29.012Z,99308.84
2019-03-17T13:53:59.376Z,99300.52
2019-03-17T13:56:29.788Z,99302.09
2019-03-17T13:59:00.135Z,99307.61
2019-03-17T14:01:30.508Z,99304.97
2019-03-17T14:04:00.873Z,99302.34
2019-03-17T14:06:31.257Z,99297.70
2019-03-17T14:09:01.611Z,99293.22
2019-03-17T14:11:33.596Z,99298.20
2019-03-17T14:14:04.245Z,99292.97
2019-03-17T14:16:34.858Z,99282.98
2019-03-17T14:19:06.103Z,99282.68
2019-03-17T14:21:36.854Z,99283.84
2019-03-17T14:24:07.451Z,99286.52
2019-03-17T14:26:37.825Z,99293.06
2019-03-17T14:29:08.778Z,99299.45
2019-03-17T14:31:40.290Z,99304.69
2019-03-17T14:34:10.743Z,99308.33
2019-03-17T14:36:41.097Z,99314.72
2019-03-17T14:39:11.539Z,99321.23
2019-03-17T14:41:41.900Z,99329.13
2019-03-17T14:44:12.358Z,99320.39
2019-03-17T14:46:42.765Z,99326.98
2019-03-17T14:49:13.103Z,99331.67
2019-03-17T14:51:43.447Z,99337.15
2019-03-17T14:54:13.810Z,99335.92
2019-03-17T14:56:44.190Z,99341.84
2019-03-17T14:59:14.683Z,99338.43
2019-03-17T15:01:45.054Z,99341.70
2019-03-17T15:04:15.437Z,99323.73
2019-03-17T15:06:45.838Z,99324.29
2019-03-17T15:09:16.250Z,99313.72
2019-03-17T15:11:46.607Z,99308.16
2019-03-17T15:14:17.047Z,99306.72
2019-03-17T15:16:47.455Z,99312.57
2019-03-17T15:19:17.885Z,99305.88
2019-03-17T15:21:48.332Z,99311.34
2019-03-17T15:24:18.795Z,99317.79
2019-03-17T15:26:49.187Z,99320.19
2019-03-17T15:29:19.612Z,99320.45
2019-03-17T15:31:50.035Z,99315.27
2019-03-17T15:34:20.408Z,99318.48
2019-03-17T15:36:50.830Z,99320.51
2019-03-17T15:39:21.233Z,99316.67
2019-03-17T15:41:51.638Z,99324.06
2019-03-17T15:44:22.245Z,99321.28
2019-03-17T15:46:52.661Z,99322.95
2019-03-17T15:49:22.994Z,99312.70
2019-03-17T15:51:54.823Z,99315.16
2019-03-17T15:54:25.200Z,99297.98
2019-03-17T15:56:55.672Z,99302.59
2019-03-17T15:59:26.177Z,99302.55
2019-03-17T16:01:56.610Z,99303.92
2019-03-17T16:04:27.003Z,99303.70
2019-03-17T16:06:57.625Z,99303.83
2019-03-17T16:09:28.761Z,99308.85
2019-03-17T16:11:59.294Z,99301.53
2019-03-17T16:14:29.690Z,99306.81
2019-03-17T16:17:02.714Z,99311.92
2019-03-17T16:19:33.088Z,99324.44
2019-03-17T16:22:03.486Z,99326.21
2019-03-17T16:24:33.861Z,99330.76
2019-03-17T16:27:04.297Z,99332.65
2019-03-17T16:29:34.730Z,99341.27
2019-03-17T16:32:05.114Z,99343.70
2019-03-17T16:34:38.458Z,99345.29
2019-03-17T16:37:08.919Z,99348.22
2019-03-17T16:39:39.557Z,99351.68
2019-03-17T16:42:09.951Z,99357.95
2019-03-17T16:44:40.286Z,99355.03
2019-03-17T16:47:10.709Z,99379.80
2019-03-17T16:49:41.113Z,99380.31
2019-03-17T16:52:11.553Z,99375.48
2019-03-17T16:54:42.303Z,99366.58
2019-03-17T16:57:12.869Z,99382.95
2019-03-17T16:59:43.509Z,99373.84
2019-03-17T17:02:13.861Z,99387.98
2019-03-17T17:04:44.330Z,99413.70
2019-03-17T17:07:14.836Z,99429.73
2019-03-17T17:09:45.586Z,99428.29
2019-03-17T17:12:16.014Z,99438.66
2019-03-17T17:14:46.475Z,99445.86
2019-03-17T17:17:16.869Z,99456.86
2019-03-17T17:19:47.216Z,99465.58
2019-03-17T17:22:17.581Z,99474.36
2019-03-17T17:24:47.955Z,99504.65
2019-03-17T17:27:20.460Z,99525.66
2019-03-17T17:29:50.840Z,99555.77
2019-03-17T17:32:21.333Z,99562.32
2019-03-17T17:34:51.902Z,99556.20
2019-03-17T17:37:22.262Z,99557.64
2019-03-17T17:39:52.659Z,99572.20
2019-03-17T17:42:23.050Z,99586.77
2019-03-17T17:44:53.400Z,99601.96
2019-03-17T17:47:23.748Z,99606.00
2019-03-17T17:49:54.104Z,99625.91
2019-03-17T17:52:24.481Z,99636.68
2019-03-17T17:54:54.819Z,99628.06
2019-03-17T17:57:25.184Z,99625.17
2019-03-17T17:59:55.757Z,99636.61
2019-03-17T18:02:26.126Z,99643.97
2019-03-17T18:04:56.458Z,99657.77
2019-03-17T18:07:26.815Z,99663.48
2019-03-17T18:09:57.269Z,99669.22
2019-03-17T18:12:27.644Z,99669.55
2019-03-17T18:14:58.091Z,99670.48
2019-03-17T18:17:28.434Z,99667.92
2019-03-17T18:19:58.787Z,99672.10
2019-03-17T18:22:29.428Z,99666.05
2019-03-17T18:24:59.922Z,99673.69
2019-03-17T18:27:30.306Z,99655.99
2019-03-17T18:30:00.894Z,99671.05
2019-03-17T18:32:31.358Z,99703.08
2019-03-17T18:35:01.968Z,99708.20
2019-03-17T18:37:33.320Z,99702.56
2019-03-17T18:40:06.737Z,99710.45
2019-03-17T18:42:37.120Z,99735.80
2019-03-17T18:45:16.861Z,99747.64
2019-03-17T18:47:48.945Z,99760.97
2019-03-17T18:50:21.039Z,99779.97
2019-03-17T18:52:52.173Z,99780.66
2019-03-17T18:55:22.548Z,99786.30
2019-03-17T18:57:53.530Z,99795.95
2019-03-17T19:00:26.262Z,99798.50
2019-03-17T19:02:56.713Z,99807.28
2019-03-17T19:05:27.154Z,99821.45
2019-03-17T19:07:57.601Z,99822.62
2019-03-17T19:10:29.798Z,99814.42
2019-03-17T19:13:03.897Z,99818.31
2019-03-17T19:15:33.896Z,99806.33
2019-03-17T19:18:04.649Z,99806.56
2019-03-17T19:20:35.110Z,99797.94
2019-03-17T19:23:05.441Z,99789.15
2019-03-17T19:25:35.826Z,99796.42
2019-03-17T19:28:06.301Z,99804.53
2019-03-17T19:30:36.840Z,99799.12
2019-03-17T19:33:08.703Z,99796.76
2019-03-17T19:35:39.246Z,99803.36
2019-03-17T19:38:10.769Z,99803.52
2019-03-17T19:40:41.524Z,99808.94
2019-03-17T19:43:12.316Z,99807.40
2019-03-17T19:45:43.069Z,99808.45
2019-03-17T19:48:14.176Z,99817.08
2019-03-17T19:50:44.582Z,99825.34
2019-03-17T19:53:15.081Z,99824.02
2019-03-17T19:55:46.153Z,99836.31
2019-03-17T19:58:17.110Z,99850.29
2019-03-17T20:00:47.601Z,99848.11
2019-03-17T20:03:19.732Z,99853.99
2019-03-17T20:06:01.832Z,99857.16
2019-03-17T20:08:22.905Z,99852.44
2019-03-17T20:10:54.473Z,99850.92
2019-03-17T20:13:25.165Z,99844.91
2019-03-17T20:15:56.184Z,99855.64
2019-03-17T20:18:28.211Z,99850.25
2019-03-17T20:20:59.345Z,99857.09
2019-03-17T20:23:31.243Z,99857.33
2019-03-17T20:26:03.001Z,99859.48
2019-03-17T20:28:33.545Z,99855.03
2019-03-17T20:31:05.125Z,99849.52
2019-03-17T20:33:36.381Z,99849.17
2019-03-17T20:36:06.970Z,99849.53
2019-03-17T20:38:37.340Z,99853.45
2019-03-17T20:41:08.022Z,99844.84
2019-03-17T20:43:38.375Z,99832.03
2019-03-17T20:46:08.781Z,99834.39
2019-03-17T20:48:39.169Z,99839.31
2019-03-17T20:51:09.859Z,99832.27
2019-03-17T20:53:40.245Z,99817.25
2019-03-17T20:56:10.649Z,99820.46
2019-03-17T20:58:42.075Z,99828.41
2019-03-17T21:01:12.479Z,99841.91
2019-03-17T21:03:43.835Z,99822.49
2019-03-17T21:06:14.402Z,99819.22
2019-03-17T21:08:44.780Z,99819.53
2019-03-17T21:11:15.162Z,99823.92
2019-03-17T21:13:47.205Z,99832.06
2019-03-17T21:16:17.666Z,99835.45
2019-03-17T21:18:48.056Z,99837.81
2019-03-17T21:21:18.462Z,99836.09
2019-03-17T21:23:49.841Z,99842.34
2019-03-17T21:26:21.608Z,99852.34
2019-03-17T21:28:53.607Z,99864.21
2019-03-17T21:31:23.952Z,99874.25
2019-03-17T21:33:54.300Z,99882.31
2019-03-17T21:36:25.754Z,99890.16
2019-03-17T21:38:57.546Z,99885.01
2019-03-17T21:41:29.333Z,99887.19
2019-03-17T21:44:00.079Z,99882.80
2019-03-17T21:46:30.393Z,99891.36
2019-03-17T21:49:03.512Z,99895.72
2019-03-17T21:51:34.417Z,99904.98
2019-03-17T21:54:04.776Z,99900.25
2019-03-17T21:56:35.128Z,99906.66
2019-03-17T21:59:05.459Z,99908.13
2019-03-17T22:01:35.847Z,99914.39
2019-03-17T22:04:06.232Z,99911.46
2019-03-17T22:06:36.618Z,99911.71
2019-03-17T22:09:07.171Z,99912.55
2019-03-17T22:11:37.607Z,99927.09
2019-03-17T22:14:12.190Z,99924.27
2019-03-17T22:16:41.112Z,99933.63
2019-03-17T22:19:11.535Z,99932.37
2019-03-17T22:21:41.886Z,99947.55
2019-03-17T22:24:12.338Z,99950.58
2019-03-17T22:26:42.723Z,99955.86
2019-03-17T22:29:13.083Z,99970.10
2019-03-17T22:31:43.531Z,99971.94
2019-03-17T22:34:13.894Z,99971.61
2019-03-17T22:36:44.254Z,99973.09
2019-03-17T22:39:14.603Z,99972.59
2019-03-17T22:41:46.267Z,99977.95
2019-03-17T22:44:24.301Z,99981.52
2019-03-17T22:46:48.644Z,99978.58
2019-03-17T22:49:19.004Z,99979.49
2019-03-17T22:51:49.358Z,99976.16
2019-03-17T22:54:19.705Z,99970.55
2019-03-17T22:56:50.049Z,99961.09
2019-03-17T22:59:20.376Z,99959.48
2019-03-17T23:01:50.812Z,99964.03
2019-03-17T23:04:22.218Z,99968.86
2019-03-17T23:06:52.700Z,99975.30
2019-03-17T23:09:23.127Z,99979.80
2019-03-17T23:11:53.473Z,99977.88
2019-03-17T23:14:35.921Z,99979.58
2019-03-17T23:16:55.803Z,99977.45
2019-03-17T23:19:26.159Z,99972.41
2019-03-17T23:21:56.530Z,99986.70
2019-03-17T23:24:26.855Z,99993.77
2019-03-17T23:26:57.215Z,99992.34
2019-03-17T23:29:27.572Z,100002.91
2019-03-17T23:31:57.938Z,100012.53
2019-03-17T23:34:28.409Z,100022.45
2019-03-17T23:36:58.803Z,100021.10
2019-03-17T23:39:29.140Z,100020.39
2019-03-17T23:41:59.525Z,100014.25
2019-03-17T23:44:29.880Z,100018.46
2019-03-17T23:47:00.254Z,100017.91
2019-03-17T23:49:30.610Z,100019.96
2019-03-17T23:52:00.967Z,100013.56
2019-03-17T23:54:31.296Z,100012.36
2019-03-17T23:57:01.651Z,100011.41
2019-03-17T23:59:32.076Z,100012.91
